createdAt,value
2018-06-04T00:00:46.947Z,17.60
2018-06-04T00:03:17.626Z,17.60
2018-06-04T00:05:48.304Z,17.60
2018-06-04T00:08:18.982Z,17.60
2018-06-04T00:10:49.799Z,17.50
2018-06-04T00:13:20.618Z,17.50
2018-06-04T00:15:51.312Z,17.50
2018-06-04T00:18:22.004Z,17.50
2018-06-04T00:20:52.748Z,17.40
2018-06-04T00:23:23.541Z,17.40
2018-06-04T00:30:54.559Z,17.30
2018-06-04T00:33:25.222Z,17.30
2018-06-04T00:35:55.877Z,17.20
2018-06-04T00:38:26.905Z,17.20
2018-06-04T00:43:27.780Z,17.20
2018-06-04T00:45:58.560Z,17.10
2018-06-04T00:48:29.268Z,17.10
2018-06-04T00:50:59.981Z,17.10
2018-06-04T00:53:30.741Z,17.10
2018-06-04T00:56:18.685Z,17.00
2018-06-04T00:58:49.335Z,17.00
2018-06-04T01:01:20.114Z,17.00
2018-06-04T01:03:50.809Z,16.90
2018-06-04T01:06:21.579Z,16.90
2018-06-04T01:08:52.235Z,16.90
2018-06-04T01:11:22.967Z,16.90
2018-06-04T01:13:53.643Z,16.90
2018-06-04T01:16:24.301Z,16.80
2018-06-04T01:18:55.007Z,16.80
2018-06-04T01:21:25.651Z,16.80
2018-06-04T01:23:56.271Z,16.80
2018-06-04T01:26:26.962Z,16.70
2018-06-04T01:28:57.661Z,16.70
2018-06-04T01:36:28.650Z,16.70
2018-06-04T01:38:59.631Z,16.60
2018-06-04T01:41:30.342Z,16.60
2018-06-04T01:44:01.005Z,16.60
2018-06-04T01:46:31.663Z,16.60
2018-06-04T01:49:02.330Z,16.50
2018-06-04T01:51:33.052Z,16.50
2018-06-04T01:54:03.854Z,16.50
2018-06-04T01:56:34.536Z,16.50
2018-06-04T01:59:05.253Z,16.40
2018-06-04T02:01:36.011Z,16.40
2018-06-04T02:04:06.809Z,16.40
2018-06-04T02:06:37.514Z,16.40
2018-06-04T02:09:08.596Z,16.30
2018-06-04T02:11:39.293Z,16.20
2018-06-04T02:16:40.219Z,16.20
2018-06-04T02:19:10.921Z,16.20
2018-06-04T02:21:41.700Z,16.20
2018-06-04T02:24:12.842Z,16.20
2018-06-04T02:26:43.617Z,16.20
2018-06-04T02:29:14.310Z,16.20
2018-06-04T02:31:45.078Z,16.20
2018-06-04T02:34:15.803Z,16.10
2018-06-04T02:36:46.487Z,16.20
2018-06-04T02:39:17.693Z,16.20
2018-06-04T02:41:52.136Z,16.20
2018-06-04T02:44:22.843Z,16.10
2018-06-04T02:46:53.602Z,16.10
2018-06-04T02:49:24.307Z,16.00
2018-06-04T02:51:55.097Z,16.00
2018-06-04T02:54:25.907Z,15.90
2018-06-04T02:56:56.660Z,15.90
2018-06-04T02:59:27.382Z,15.90
2018-06-04T03:01:58.099Z,15.90
2018-06-04T03:04:28.832Z,15.90
2018-06-04T03:06:59.593Z,15.90
2018-06-04T03:09:30.305Z,15.80
2018-06-04T03:12:01.049Z,15.80
2018-06-04T03:14:31.797Z,15.80
2018-06-04T03:17:02.572Z,15.80
2018-06-04T03:19:33.263Z,15.80
2018-06-04T03:22:04.315Z,15.80
2018-06-04T03:24:35.033Z,15.80
2018-06-04T03:27:05.898Z,15.90
2018-06-04T03:29:36.559Z,15.90
2018-06-04T03:32:07.362Z,15.90
2018-06-04T03:37:09.092Z,16.00
2018-06-04T03:39:40.203Z,16.10
2018-06-04T03:42:10.976Z,16.20
2018-06-04T03:44:41.745Z,16.40
2018-06-04T03:47:12.688Z,16.70
2018-06-04T03:49:43.624Z,16.90
2018-06-04T03:52:14.682Z,17.20
2018-06-04T03:54:45.407Z,17.50
2018-06-04T03:57:16.719Z,17.70
2018-06-04T03:59:47.420Z,17.60
2018-06-04T04:02:19.853Z,17.50
2018-06-04T04:04:50.638Z,17.50
2018-06-04T04:07:21.393Z,17.40
2018-06-04T04:09:52.095Z,17.40
2018-06-04T04:12:22.797Z,17.40
2018-06-04T04:14:53.570Z,17.30
2018-06-04T04:17:24.349Z,17.30
2018-06-04T04:19:55.256Z,17.30
2018-06-04T04:22:26.421Z,17.30
2018-06-04T04:24:58.150Z,17.30
2018-06-04T04:27:28.991Z,17.20
2018-06-04T04:29:59.701Z,17.30
2018-06-04T04:32:30.536Z,17.40
2018-06-04T04:35:01.267Z,17.70
2018-06-04T04:37:32.065Z,18.20
2018-06-04T04:40:03.027Z,18.90
2018-06-04T04:42:36.642Z,19.90
2018-06-04T04:45:07.501Z,21.20
2018-06-04T04:47:38.170Z,22.40
2018-06-04T04:50:08.991Z,23.40
2018-06-04T04:52:41.857Z,24.30
2018-06-04T04:55:12.792Z,24.80
2018-06-04T04:57:44.051Z,24.80
2018-06-04T05:00:14.935Z,24.20
2018-06-04T05:02:45.976Z,25.20
2018-06-04T05:05:16.678Z,25.50
2018-06-04T05:07:47.359Z,26.20
2018-06-04T05:10:18.023Z,27.70
2018-06-04T05:12:48.640Z,28.30
2018-06-04T05:15:19.279Z,29.00
2018-06-04T05:17:49.977Z,28.90
2018-06-04T05:20:20.563Z,29.10
2018-06-04T05:22:51.247Z,29.20
2018-06-04T05:25:21.869Z,29.40
2018-06-04T05:27:52.455Z,29.20
2018-06-04T05:30:23.000Z,29.00
2018-06-04T05:32:53.798Z,29.30
2018-06-04T05:35:24.829Z,28.90
2018-06-04T05:37:55.613Z,28.20
2018-06-04T05:40:27.674Z,26.90
2018-06-04T05:45:28.920Z,26.60
2018-06-04T05:47:59.753Z,26.80
2018-06-04T05:50:30.775Z,26.90
2018-06-04T05:53:01.623Z,27.70
2018-06-04T05:55:32.428Z,28.10
2018-06-04T05:58:03.131Z,28.10
2018-06-04T06:03:04.042Z,30.20
2018-06-04T06:05:34.745Z,30.20
2018-06-04T06:08:05.511Z,30.70
2018-06-04T06:10:36.250Z,30.80
2018-06-04T06:13:06.963Z,31.50
2018-06-04T06:15:37.797Z,32.20
2018-06-04T06:18:08.582Z,32.80
2018-06-04T06:23:09.512Z,32.40
2018-06-04T06:25:40.240Z,32.20
2018-06-04T06:28:10.908Z,32.50
2018-06-04T06:33:11.731Z,32.40
2018-06-04T06:35:42.325Z,32.70
2018-06-04T06:38:13.095Z,32.80
2018-06-04T06:43:14.176Z,33.20
2018-06-04T06:48:15.058Z,34.50
2018-06-04T06:50:45.768Z,35.00
2018-06-04T06:53:16.528Z,35.60
2018-06-04T06:55:47.229Z,35.80
2018-06-04T07:00:48.199Z,35.10
2018-06-04T07:03:18.875Z,35.10
2018-06-04T07:05:49.531Z,35.10
2018-06-04T07:08:20.365Z,35.20
2018-06-04T07:10:51.137Z,36.00
2018-06-04T07:13:21.929Z,36.00
2018-06-04T07:15:52.639Z,36.40
2018-06-04T07:18:23.485Z,36.50
2018-06-04T07:20:54.265Z,37.00
2018-06-04T07:25:55.292Z,37.50
2018-06-04T07:28:26.068Z,37.90
2018-06-04T07:30:56.786Z,38.30
2018-06-04T07:33:27.565Z,37.90
2018-06-04T07:36:11.793Z,37.90
2018-06-04T07:38:42.441Z,37.30
2018-06-04T07:41:13.261Z,37.00
2018-06-04T07:43:43.966Z,37.00
2018-06-04T07:48:44.949Z,37.70
2018-06-04T07:51:15.627Z,37.10
2018-06-04T07:53:47.849Z,37.40
2018-06-04T07:56:18.593Z,38.00
2018-06-04T07:58:49.437Z,38.40
2018-06-04T08:01:20.126Z,38.50
2018-06-04T08:06:21.261Z,38.90
2018-06-04T08:08:51.978Z,38.80
2018-06-04T08:11:23.160Z,39.10
2018-06-04T08:13:53.901Z,39.90
2018-06-04T08:16:24.663Z,40.50
2018-06-04T08:18:55.343Z,39.70
2018-06-04T08:21:26.064Z,39.40
2018-06-04T08:23:57.037Z,40.20
2018-06-04T08:26:27.724Z,40.90
2018-06-04T08:28:58.398Z,41.30
2018-06-04T08:31:29.144Z,41.00
2018-06-04T08:33:59.759Z,40.40
2018-06-04T08:39:00.787Z,41.20
2018-06-04T08:41:31.647Z,40.80
2018-06-04T08:44:02.408Z,40.40
2018-06-04T08:46:33.136Z,40.30
2018-06-04T08:49:03.832Z,39.90
2018-06-04T08:51:34.553Z,39.80
2018-06-04T08:54:05.177Z,39.70
2018-06-04T08:56:35.960Z,39.70
2018-06-04T09:01:36.854Z,39.50
2018-06-04T09:04:07.653Z,39.40
2018-06-04T09:06:38.439Z,39.30
2018-06-04T09:09:09.139Z,39.30
2018-06-04T09:11:39.928Z,39.30
2018-06-04T09:14:10.740Z,39.10
2018-06-04T09:16:41.406Z,39.00
2018-06-04T09:21:42.415Z,39.40
2018-06-04T09:24:13.388Z,39.80
2018-06-04T09:26:44.101Z,40.10
2018-06-04T09:29:14.809Z,39.60
2018-06-04T09:31:45.617Z,39.30
2018-06-04T09:34:16.323Z,39.10
2018-06-04T09:36:47.056Z,39.00
2018-06-04T09:39:19.232Z,38.90
2018-06-04T09:41:50.059Z,38.70
2018-06-04T09:44:20.751Z,38.70
2018-06-04T09:46:51.481Z,38.50
2018-06-04T09:49:22.179Z,38.40
2018-06-04T09:54:23.058Z,38.20
2018-06-04T09:56:53.791Z,38.10
2018-06-04T09:59:24.485Z,38.20
2018-06-04T10:01:56.019Z,38.10
2018-06-04T10:04:26.784Z,38.00
2018-06-04T10:06:57.504Z,37.80
2018-06-04T10:09:29.073Z,38.40
2018-06-04T10:11:59.729Z,38.10
2018-06-04T10:14:30.836Z,38.20
2018-06-04T10:17:01.585Z,37.70
2018-06-04T10:19:32.957Z,37.50
2018-06-04T10:22:03.565Z,37.30
2018-06-04T10:24:34.351Z,37.10
2018-06-04T10:27:05.133Z,37.10
2018-06-04T10:29:37.225Z,37.20
2018-06-04T10:32:07.801Z,36.90
2018-06-04T10:34:38.406Z,36.20
2018-06-04T10:37:09.140Z,35.60
2018-06-04T10:39:39.959Z,35.30
2018-06-04T10:42:10.934Z,35.00
2018-06-04T10:44:41.668Z,34.50
2018-06-04T10:47:13.839Z,34.00
2018-06-04T10:49:44.639Z,33.80
2018-06-04T10:52:15.285Z,33.60
2018-06-04T10:54:46.043Z,33.70
2018-06-04T10:57:16.746Z,34.00
2018-06-04T10:59:49.001Z,34.70
2018-06-04T11:02:19.734Z,35.40
2018-06-04T11:04:50.684Z,35.70
2018-06-04T11:09:51.632Z,35.90
2018-06-04T11:12:22.352Z,35.80
2018-06-04T11:14:53.071Z,35.60
2018-06-04T11:17:23.843Z,35.80
2018-06-04T11:19:54.507Z,36.20
2018-06-04T11:27:25.340Z,36.60
2018-06-04T11:29:56.199Z,36.30
2018-06-04T11:32:26.903Z,36.50
2018-06-04T11:34:57.606Z,36.70
2018-06-04T11:37:28.334Z,36.90
2018-06-04T11:42:29.423Z,36.80
2018-06-04T11:45:00.220Z,36.60
2018-06-04T11:47:30.913Z,36.90
2018-06-04T11:50:01.591Z,36.80
2018-06-04T11:52:32.289Z,36.90
2018-06-04T11:55:02.953Z,36.40
2018-06-04T12:00:04.684Z,35.20
2018-06-04T12:02:35.856Z,34.60
2018-06-04T12:05:06.858Z,34.20
2018-06-04T12:07:37.969Z,34.00
2018-06-04T12:10:09.016Z,33.80
2018-06-04T12:12:39.853Z,33.70
2018-06-04T12:15:10.906Z,33.60
2018-06-04T12:17:41.729Z,33.60
2018-06-04T12:20:12.727Z,33.50
2018-06-04T12:22:43.827Z,33.20
2018-06-04T12:25:14.653Z,33.40
2018-06-04T12:27:45.404Z,33.40
2018-06-04T12:30:16.073Z,33.00
2018-06-04T12:35:17.051Z,32.70
2018-06-04T12:37:47.848Z,32.60
2018-06-04T12:40:18.551Z,32.60
2018-06-04T12:42:49.495Z,32.60
2018-06-04T12:45:20.295Z,32.50
2018-06-04T12:47:51.094Z,32.40
2018-06-04T12:50:21.912Z,32.60
2018-06-04T12:52:52.636Z,32.40
2018-06-04T12:55:23.458Z,32.00
2018-06-04T12:57:55.537Z,31.50
2018-06-04T13:00:27.363Z,30.90
2018-06-04T13:02:58.154Z,30.20
2018-06-04T13:05:29.015Z,29.70
2018-06-04T13:07:59.804Z,29.40
2018-06-04T13:10:30.609Z,28.80
2018-06-04T13:13:01.384Z,28.40
2018-06-04T13:15:32.306Z,28.20
2018-06-04T13:18:46.706Z,27.90
2018-06-04T13:21:18.991Z,27.20
2018-06-04T13:23:50.098Z,25.80
2018-06-04T13:31:24.467Z,24.60
2018-06-04T13:33:55.736Z,24.50
2018-06-04T13:36:36.349Z,24.60
2018-06-04T13:41:40.014Z,24.90
2018-06-04T13:44:10.956Z,25.20
2018-06-04T13:46:41.703Z,25.40
2018-06-04T13:49:12.580Z,25.10
2018-06-04T13:51:43.400Z,24.80
2018-06-04T13:54:14.196Z,24.70
2018-06-04T13:56:44.980Z,24.60
2018-06-04T13:59:15.795Z,24.40
2018-06-04T14:01:46.604Z,24.60
2018-06-04T14:04:17.279Z,24.90
2018-06-04T14:06:48.004Z,25.20
2018-06-04T14:09:18.675Z,25.50
2018-06-04T14:11:49.443Z,25.70
2018-06-04T14:14:20.104Z,25.90
2018-06-04T14:16:50.832Z,25.90
2018-06-04T14:19:21.677Z,26.00
2018-06-04T14:21:52.453Z,26.30
2018-06-04T14:24:23.700Z,26.50
2018-06-04T14:26:54.373Z,26.60
2018-06-04T14:29:25.183Z,26.70
2018-06-04T14:31:57.360Z,26.80
2018-06-04T14:34:28.099Z,26.90
2018-06-04T14:36:58.830Z,27.00
2018-06-04T14:39:30.553Z,27.10
2018-06-04T14:42:02.555Z,27.00
2018-06-04T14:44:35.815Z,26.90
2018-06-04T14:47:07.569Z,26.90
2018-06-04T14:49:38.268Z,26.90
2018-06-04T14:52:09.080Z,26.90
2018-06-04T14:54:39.981Z,26.90
2018-06-04T14:57:13.770Z,26.90
2018-06-04T14:59:44.497Z,26.90
2018-06-04T15:02:15.196Z,26.90
2018-06-04T15:04:45.921Z,27.00
2018-06-04T15:07:16.693Z,27.00
2018-06-04T15:09:47.349Z,27.00
2018-06-04T15:12:18.093Z,27.00
2018-06-04T15:14:48.798Z,26.90
2018-06-04T15:17:19.431Z,26.80
2018-06-04T15:19:50.264Z,26.70
2018-06-04T15:22:20.959Z,26.50
2018-06-04T15:24:51.682Z,26.50
2018-06-04T15:27:23.765Z,26.50
2018-06-04T15:29:55.993Z,26.40
2018-06-04T15:32:30.398Z,26.50
2018-06-04T15:37:37.787Z,26.40
2018-06-04T15:40:08.786Z,26.40
2018-06-04T15:42:40.859Z,26.40
2018-06-04T15:45:16.723Z,26.50
2018-06-04T15:47:49.301Z,26.50
2018-06-04T15:50:39.888Z,26.50
2018-06-04T15:53:21.263Z,26.40
2018-06-04T15:55:52.720Z,26.30
2018-06-04T15:58:23.589Z,26.30
2018-06-04T16:00:54.703Z,26.30
2018-06-04T16:03:27.488Z,26.20
2018-06-04T16:05:58.267Z,26.20
2018-06-04T16:08:29.004Z,26.20
2018-06-04T16:10:59.687Z,26.10
2018-06-04T16:13:30.504Z,26.00
2018-06-04T16:16:01.291Z,26.00
2018-06-04T16:18:33.730Z,25.90
2018-06-04T16:21:04.555Z,25.80
2018-06-04T16:23:35.260Z,25.70
2018-06-04T16:26:05.927Z,25.60
2018-06-04T16:28:36.644Z,25.60
2018-06-04T16:31:07.237Z,25.50
2018-06-04T16:33:38.660Z,25.40
2018-06-04T16:36:09.475Z,25.20
2018-06-04T16:38:40.215Z,25.20
2018-06-04T16:41:10.964Z,25.00
2018-06-04T16:43:42.129Z,25.00
2018-06-04T16:48:43.104Z,25.00
2018-06-04T16:51:13.836Z,25.10
2018-06-04T16:56:14.686Z,25.20
2018-06-04T16:58:45.512Z,25.20
2018-06-04T17:01:16.187Z,25.20
2018-06-04T17:03:46.955Z,25.10
2018-06-04T17:06:17.669Z,25.00
2018-06-04T17:08:48.404Z,25.00
2018-06-04T17:13:51.391Z,25.00
2018-06-04T17:16:23.331Z,24.90
2018-06-04T17:18:54.053Z,24.80
2018-06-04T17:21:24.803Z,24.70
2018-06-04T17:23:55.623Z,24.60
2018-06-04T17:26:26.797Z,24.50
2018-06-04T17:28:58.585Z,24.50
2018-06-04T17:31:29.796Z,24.50
2018-06-04T17:34:00.580Z,24.40
2018-06-04T17:36:32.009Z,24.30
2018-06-04T17:39:02.804Z,24.20
2018-06-04T17:41:33.545Z,24.10
2018-06-04T17:44:05.637Z,24.10
2018-06-04T17:46:36.568Z,24.00
2018-06-04T17:49:09.448Z,23.90
2018-06-04T17:51:42.621Z,23.90
2018-06-04T17:54:13.738Z,23.90
2018-06-04T17:56:44.601Z,23.80
2018-06-04T17:59:15.456Z,23.70
2018-06-04T18:01:46.142Z,23.60
2018-06-04T18:06:47.422Z,23.50
2018-06-04T18:09:24.451Z,23.40
2018-06-04T18:12:01.560Z,23.40
2018-06-04T18:17:05.949Z,23.30
2018-06-04T18:19:36.765Z,23.20
2018-06-04T18:22:07.749Z,23.10
2018-06-04T18:27:09.631Z,23.00
2018-06-04T18:29:40.399Z,23.00
2018-06-04T18:32:11.263Z,22.90
2018-06-04T18:34:42.919Z,22.80
2018-06-04T18:37:13.652Z,22.80
2018-06-04T18:39:45.577Z,22.70
2018-06-04T18:42:21.634Z,22.70
2018-06-04T18:44:52.485Z,22.70
2018-06-04T18:47:24.560Z,22.60
2018-06-04T18:49:58.064Z,22.60
2018-06-04T18:58:13.669Z,22.30
2018-06-04T19:00:47.366Z,22.20
2018-06-04T19:03:20.164Z,22.20
2018-06-04T19:05:50.836Z,22.10
2018-06-04T19:08:21.574Z,22.00
2018-06-04T19:10:52.893Z,22.00
2018-06-04T19:13:41.734Z,21.90
2018-06-04T19:16:14.883Z,21.80
2018-06-04T19:18:45.735Z,21.70
2018-06-04T19:21:16.592Z,21.70
2018-06-04T19:23:47.388Z,21.60
2018-06-04T19:26:18.267Z,21.60
2018-06-04T19:28:49.158Z,21.50
2018-06-04T19:31:31.177Z,21.50
2018-06-04T19:34:02.925Z,21.40
2018-06-04T19:36:38.020Z,21.40
2018-06-04T19:39:12.184Z,21.30
2018-06-04T19:44:15.364Z,21.10
2018-06-04T19:46:46.951Z,21.00
2018-06-04T19:49:17.989Z,21.00
2018-06-04T19:51:48.723Z,20.90
2018-06-04T19:54:19.375Z,20.90
2018-06-04T19:56:50.146Z,20.80
2018-06-04T19:59:20.904Z,20.80
2018-06-04T20:04:21.852Z,20.70
2018-06-04T20:06:52.466Z,20.70
2018-06-04T20:09:23.107Z,20.70
2018-06-04T20:11:53.773Z,20.70
2018-06-04T20:14:24.502Z,20.70
2018-06-04T20:16:55.268Z,20.60
2018-06-04T20:19:26.109Z,20.60
2018-06-04T20:21:56.814Z,20.60
2018-06-04T20:24:27.594Z,20.60
2018-06-04T20:26:58.344Z,20.50
2018-06-04T20:29:29.142Z,20.40
2018-06-04T20:31:59.979Z,20.30
2018-06-04T20:34:30.690Z,20.30
2018-06-04T20:37:01.488Z,20.30
2018-06-04T20:39:32.225Z,20.30
2018-06-04T20:42:02.924Z,20.30
2018-06-04T20:44:33.639Z,20.20
2018-06-04T20:47:04.390Z,20.20
2018-06-04T20:49:35.276Z,20.20
2018-06-04T20:52:06.026Z,20.10
2018-06-04T20:54:36.790Z,20.10
2018-06-04T20:57:07.614Z,20.10
2018-06-04T20:59:38.388Z,20.00
2018-06-04T21:02:09.911Z,20.00
2018-06-04T21:04:40.754Z,20.00
2018-06-04T21:07:13.335Z,20.00
2018-06-04T21:09:45.315Z,19.90
2018-06-04T21:12:16.017Z,19.80
2018-06-04T21:14:46.818Z,19.80
2018-06-04T21:17:17.686Z,19.70
2018-06-04T21:19:48.348Z,19.80
2018-06-04T21:22:19.178Z,19.70
2018-06-04T21:24:49.982Z,19.60
2018-06-04T21:27:20.710Z,19.60
2018-06-04T21:29:51.487Z,19.50
2018-06-04T21:32:22.317Z,19.40
2018-06-04T21:34:53.051Z,19.40
2018-06-04T21:37:23.939Z,19.40
2018-06-04T21:39:54.731Z,19.40
2018-06-04T21:42:25.595Z,19.30
2018-06-04T21:44:56.280Z,19.30
2018-06-04T21:47:26.963Z,19.20
2018-06-04T21:49:57.933Z,19.20
2018-06-04T21:52:28.766Z,19.10
2018-06-04T21:54:59.525Z,19.10
2018-06-04T21:57:33.391Z,19.10
2018-06-04T22:00:06.359Z,19.00
2018-06-04T22:02:37.741Z,19.00
2018-06-04T22:05:08.553Z,18.90
2018-06-04T22:07:39.222Z,18.90
2018-06-04T22:10:10.045Z,18.90
2018-06-04T22:12:40.786Z,18.90
2018-06-04T22:15:12.170Z,18.90
2018-06-04T22:20:13.154Z,18.80
2018-06-04T22:22:43.895Z,18.80
2018-06-04T22:25:14.538Z,18.80
2018-06-04T22:27:45.244Z,18.70
2018-06-04T22:32:46.314Z,18.70
2018-06-04T22:35:17.026Z,18.60
2018-06-04T22:37:47.760Z,18.70
2018-06-04T22:40:18.459Z,18.60
2018-06-04T22:42:49.221Z,18.60
2018-06-04T22:45:19.908Z,18.50
2018-06-04T22:47:50.650Z,18.50
2018-06-04T22:50:21.788Z,18.50
2018-06-04T22:52:52.507Z,18.50
2018-06-04T22:55:23.255Z,18.50
2018-06-04T22:57:54.022Z,18.50
2018-06-04T23:00:36.564Z,18.50
2018-06-04T23:03:07.732Z,18.50
2018-06-04T23:05:38.401Z,18.40
2018-06-04T23:08:09.059Z,18.40
2018-06-04T23:10:39.752Z,18.40
2018-06-04T23:13:10.459Z,18.40
2018-06-04T23:15:41.283Z,18.30
2018-06-04T23:18:11.906Z,18.30
2018-06-04T23:20:42.621Z,18.30
2018-06-04T23:23:13.291Z,18.20
2018-06-04T23:25:44.063Z,18.20
2018-06-04T23:28:14.796Z,18.10
2018-06-04T23:30:45.536Z,18.10
2018-06-04T23:33:16.274Z,18.10
2018-06-04T23:35:46.995Z,18.10
2018-06-04T23:38:17.805Z,18.00
2018-06-04T23:40:48.482Z,17.90
2018-06-04T23:45:49.700Z,17.90
2018-06-04T23:48:20.369Z,17.90
2018-06-04T23:50:51.282Z,17.80
2018-06-04T23:53:22.040Z,17.90
2018-06-04T23:55:52.727Z,17.80
2018-06-04T23:58:23.470Z,17.80
